createdAt,value
2022-08-03T00:00:58.125Z,101038.88
2022-08-03T00:02:01.906Z,101035.59
2022-08-03T00:03:06.416Z,101045.91
2022-08-03T00:04:11.621Z,101041.00
2022-08-03T00:05:13.805Z,101048.59
2022-08-03T00:06:16.998Z,101050.75
2022-08-03T00:07:19.149Z,101042.03
2022-08-03T00:08:22.487Z,101041.72
2022-08-03T00:09:25.265Z,101042.00
2022-08-03T00:10:39.323Z,101040.91
2022-08-03T00:11:41.527Z,101041.97
2022-08-03T00:12:44.642Z,101037.06
2022-08-03T00:13:46.908Z,101035.69
2022-08-03T00:14:51.429Z,101032.41
2022-08-03T00:15:54.218Z,101031.84
2022-08-03T00:16:57.819Z,101044.06
2022-08-03T00:18:00.025Z,101039.97
2022-08-03T00:19:03.320Z,101042.94
2022-08-03T00:20:06.283Z,101043.47
2022-08-03T00:21:10.182Z,101034.75
2022-08-03T00:22:12.337Z,101041.47
2022-08-03T00:23:15.456Z,101039.03
2022-08-03T00:24:17.710Z,101035.75
2022-08-03T00:25:20.958Z,101037.94
2022-08-03T00:26:23.268Z,101027.34
2022-08-03T00:27:26.482Z,101033.25
2022-08-03T00:28:28.738Z,101032.72
2022-08-03T00:29:31.876Z,101044.66
2022-08-03T00:30:36.039Z,101034.03
2022-08-03T00:31:44.937Z,101024.53
2022-08-03T00:32:55.265Z,101025.84
2022-08-03T00:34:03.140Z,101035.91
2022-08-03T00:35:09.794Z,101030.72
2022-08-03T00:36:15.574Z,101029.34
2022-08-03T00:37:17.937Z,101036.13
2022-08-03T00:38:21.346Z,101029.06
2022-08-03T00:39:23.469Z,101032.03
2022-08-03T00:40:26.858Z,101024.16
2022-08-03T00:41:29.966Z,101027.34
2022-08-03T00:42:32.230Z,101025.72
2022-08-03T00:43:35.391Z,101021.66
2022-08-03T00:44:39.901Z,101026.50
2022-08-03T00:45:44.846Z,101024.06
2022-08-03T00:46:46.980Z,101022.66
2022-08-03T00:47:50.152Z,101022.94
2022-08-03T00:48:53.395Z,101025.06
2022-08-03T00:49:56.762Z,101022.63
2022-08-03T00:50:59.086Z,101025.59
2022-08-03T00:52:09.351Z,101016.88
2022-08-03T00:53:12.730Z,101024.44
2022-08-03T00:54:16.190Z,101032.84
2022-08-03T00:55:18.695Z,101028.50
2022-08-03T00:56:21.788Z,101030.66
2022-08-03T00:57:23.950Z,101025.50
2022-08-03T00:58:27.282Z,101018.44
2022-08-03T00:59:30.139Z,101029.78
2022-08-03T01:00:36.335Z,101029.78
2022-08-03T01:01:39.907Z,101021.09
2022-08-03T01:02:43.229Z,101014.03
2022-08-03T01:03:45.423Z,101015.09
2022-08-03T01:04:48.626Z,101014.53
2022-08-03T01:05:56.228Z,101013.16
2022-08-03T01:07:10.957Z,101019.66
2022-08-03T01:08:22.784Z,101018.03
2022-08-03T01:09:38.281Z,101019.34
2022-08-03T01:10:46.668Z,101014.16
2022-08-03T01:12:00.895Z,101021.47
2022-08-03T01:14:01.411Z,101015.53
2022-08-03T01:14:47.124Z,101018.72
2022-08-03T01:15:58.682Z,101018.16
2022-08-03T01:17:08.299Z,101018.16
2022-08-03T01:18:17.435Z,101019.19
2022-08-03T01:19:36.880Z,101016.50
2022-08-03T01:20:44.933Z,101008.34
2022-08-03T01:22:10.628Z,101013.78
2022-08-03T01:23:43.454Z,101016.50
2022-08-03T01:24:55.302Z,101017.56
2022-08-03T01:26:26.896Z,101009.69
2022-08-03T01:27:39.995Z,101022.44
2022-08-03T01:29:05.139Z,101016.19
2022-08-03T01:30:10.305Z,101009.13
2022-08-03T01:31:19.922Z,101011.00
2022-08-03T01:33:00.127Z,101016.44
2022-08-03T01:34:01.346Z,101012.66
2022-08-03T01:35:06.372Z,101008.28
2022-08-03T01:36:14.893Z,101012.66
2022-08-03T01:37:22.445Z,101014.28
2022-08-03T01:38:28.849Z,101014.28
2022-08-03T01:39:33.278Z,101016.19
2022-08-03T01:40:40.626Z,101013.47
2022-08-03T01:41:48.218Z,101017.25
2022-08-03T01:42:52.936Z,101012.66
2022-08-03T01:44:29.477Z,101019.16
2022-08-03T01:45:23.871Z,101013.16
2022-08-03T01:46:26.631Z,101015.88
2022-08-03T01:47:31.649Z,101014.22
2022-08-03T01:48:36.414Z,101021.53
2022-08-03T01:49:41.812Z,101013.66
2022-08-03T01:50:46.222Z,101012.88
2022-08-03T01:52:02.751Z,101015.81
2022-08-03T01:53:09.598Z,101017.72
2022-08-03T01:54:14.507Z,101019.59
2022-08-03T01:55:19.374Z,101013.59
2022-08-03T01:56:25.969Z,101015.53
2022-08-03T01:57:30.930Z,101016.56
2022-08-03T01:58:37.518Z,101005.72
2022-08-03T01:59:42.180Z,101007.63
2022-08-03T02:00:48.007Z,100999.47
2022-08-03T02:02:15.996Z,101003.84
2022-08-03T02:03:16.770Z,101004.91
2022-08-03T02:04:20.065Z,101002.19
2022-08-03T02:05:24.175Z,101007.63
2022-08-03T02:07:01.711Z,100999.47
2022-08-03T02:07:53.678Z,101005.16
2022-08-03T02:08:57.303Z,101000.56
2022-08-03T02:10:02.344Z,100999.75
2022-08-03T02:11:07.139Z,100994.56
2022-08-03T02:12:11.652Z,101006.50
2022-08-03T02:13:17.410Z,100999.41
2022-08-03T02:14:21.822Z,100998.38
2022-08-03T02:15:25.536Z,100994.00
2022-08-03T02:16:32.939Z,101003.22
2022-08-03T02:17:39.878Z,100994.25
2022-08-03T02:18:43.199Z,101000.75
2022-08-03T02:19:47.152Z,101001.84
2022-08-03T02:20:50.566Z,100996.66
2022-08-03T02:21:56.620Z,101007.50
2022-08-03T02:23:04.087Z,101002.06
2022-08-03T02:24:08.584Z,101011.28
2022-08-03T02:25:12.506Z,101002.59
2022-08-03T02:26:18.574Z,100999.88
2022-08-03T02:27:24.283Z,101000.13
2022-08-03T02:28:33.147Z,100996.59
2022-08-03T02:29:40.128Z,100997.69
2022-08-03T02:30:51.848Z,101001.72
2022-08-03T02:32:00.476Z,100996.53
2022-08-03T02:33:05.108Z,100993.03
2022-08-03T02:34:14.822Z,100993.28
2022-08-03T02:35:20.626Z,100995.16
2022-08-03T02:36:28.525Z,100987.28
2022-08-03T02:37:39.212Z,100987.53
2022-08-03T02:38:49.524Z,100988.34
2022-08-03T02:39:56.209Z,100988.84
2022-08-03T02:40:59.030Z,100984.50
2022-08-03T02:42:03.433Z,100989.34
2022-08-03T02:43:09.399Z,100990.19
2022-08-03T02:44:14.062Z,100994.78
2022-08-03T02:45:19.443Z,100983.63
2022-08-03T02:46:25.592Z,100985.28
2022-08-03T02:47:53.973Z,100987.41
2022-08-03T02:48:57.689Z,100986.59
2022-08-03T02:50:02.343Z,100985.75
2022-08-03T02:51:06.695Z,100987.66
2022-08-03T02:52:13.152Z,100983.31
2022-08-03T02:53:20.862Z,100980.59
2022-08-03T02:54:25.416Z,100987.09
2022-08-03T02:55:30.241Z,100981.69
2022-08-03T02:56:34.525Z,100987.09
2022-08-03T02:57:38.959Z,100988.72
2022-08-03T02:58:43.503Z,100984.38
2022-08-03T02:59:47.714Z,100983.31
2022-08-03T03:00:51.935Z,100983.31
2022-08-03T03:01:56.842Z,100980.59
2022-08-03T03:03:06.206Z,100976.84
2022-08-03T03:04:10.099Z,100976.56
2022-08-03T03:05:54.866Z,100983.88
2022-08-03T03:06:40.740Z,100980.34
2022-08-03T03:07:52.079Z,100978.72
2022-08-03T03:08:59.738Z,100990.38
2022-08-03T03:10:03.254Z,100984.97
2022-08-03T03:11:08.943Z,100979.53
2022-08-03T03:12:13.687Z,100979.53
2022-08-03T03:13:17.397Z,100980.34
2022-08-03T03:14:33.872Z,100984.97
2022-08-03T03:15:39.847Z,100984.97
2022-08-03T03:16:43.836Z,100984.13
2022-08-03T03:17:48.479Z,100979.78
2022-08-03T03:18:54.096Z,100980.84
2022-08-03T03:19:57.975Z,100983.56
2022-08-03T03:21:01.723Z,100985.44
2022-08-03T03:22:07.040Z,100983.81
2022-08-03T03:23:10.079Z,100982.97
2022-08-03T03:24:13.656Z,100980.28
2022-08-03T03:25:16.472Z,100993.03
2022-08-03T03:26:20.043Z,100985.94
2022-08-03T03:27:22.718Z,100990.56
2022-08-03T03:28:26.972Z,100993.50
2022-08-03T03:29:29.793Z,100990.00
2022-08-03T03:30:43.623Z,100991.03
2022-08-03T03:31:46.199Z,100997.53
2022-08-03T03:32:52.244Z,100993.22
2022-08-03T03:33:58.197Z,100998.63
2022-08-03T03:35:01.582Z,100992.63
2022-08-03T03:36:05.230Z,101001.81
2022-08-03T03:37:08.424Z,100998.31
2022-08-03T03:38:10.634Z,100991.22
2022-08-03T03:39:15.915Z,100987.94
2022-08-03T03:40:19.460Z,100991.75
2022-08-03T03:41:22.679Z,100990.66
2022-08-03T03:42:25.926Z,100992.00
2022-08-03T03:43:29.488Z,100986.25
2022-08-03T03:44:32.705Z,100994.97
2022-08-03T03:45:35.726Z,100987.88
2022-08-03T03:46:39.239Z,100992.50
2022-08-03T03:47:41.460Z,100991.94
2022-08-03T03:48:45.869Z,100991.94
2022-08-03T03:49:50.079Z,100980.25
2022-08-03T03:50:57.275Z,100985.69
2022-08-03T03:51:59.472Z,100984.06
2022-08-03T03:53:02.802Z,100985.69
2022-08-03T03:54:06.940Z,100998.44
2022-08-03T03:55:10.340Z,100991.94
2022-08-03T03:56:12.482Z,100993.81
2022-08-03T03:57:15.559Z,100984.88
2022-08-03T03:58:17.712Z,100995.94
2022-08-03T03:59:20.957Z,100990.53
2022-08-03T04:00:24.054Z,100992.69
2022-08-03T04:01:27.455Z,100992.94
2022-08-03T04:02:29.949Z,100990.22
2022-08-03T04:03:33.175Z,100992.94
2022-08-03T04:04:54.426Z,100998.34
2022-08-03T04:06:17.114Z,100994.00
2022-08-03T04:07:38.275Z,100993.16
2022-08-03T04:08:59.078Z,100995.88
2022-08-03T04:10:20.250Z,100986.94
2022-08-03T04:11:29.339Z,100990.44
2022-08-03T04:12:36.625Z,100994.81
2022-08-03T04:13:42.099Z,100988.56
2022-08-03T04:14:46.268Z,100992.09
2022-08-03T04:15:51.738Z,100992.94
2022-08-03T04:16:57.997Z,100998.34
2022-08-03T04:18:02.739Z,100988.31
2022-08-03T04:19:10.522Z,100991.84
2022-08-03T04:20:13.928Z,100987.28
2022-08-03T04:21:23.520Z,100990.78
2022-08-03T04:22:29.109Z,100993.47
2022-08-03T04:23:34.347Z,100987.81
2022-08-03T04:24:41.620Z,100986.75
2022-08-03T04:25:45.229Z,100995.47
2022-08-03T04:26:52.744Z,100992.75
2022-08-03T04:28:08.131Z,100991.94
2022-08-03T04:29:24.586Z,100990.59
2022-08-03T04:30:29.375Z,100992.25
2022-08-03T04:31:31.929Z,100992.25
2022-08-03T04:32:37.503Z,100986.81
2022-08-03T04:33:41.416Z,100993.06
2022-08-03T04:34:44.980Z,100998.25
2022-08-03T04:35:58.673Z,100995.28
2022-08-03T04:37:13.591Z,100994.19
2022-08-03T04:38:19.429Z,100996.66
2022-08-03T04:39:26.625Z,100997.22
2022-08-03T04:40:33.645Z,100995.09
2022-08-03T04:42:07.232Z,100992.13
2022-08-03T04:43:00.865Z,100994.00
2022-08-03T04:44:06.991Z,100994.59
2022-08-03T04:45:13.040Z,101001.41
2022-08-03T04:46:16.724Z,100999.25
2022-08-03T04:47:19.805Z,101005.22
2022-08-03T04:48:23.463Z,100996.84
2022-08-03T04:49:26.680Z,100997.44
2022-08-03T04:50:30.269Z,100991.75
2022-08-03T04:51:42.785Z,100995.88
2022-08-03T04:52:47.473Z,100997.22
2022-08-03T04:53:49.850Z,101003.47
2022-08-03T04:54:53.099Z,101001.34
2022-08-03T04:55:55.248Z,100993.75
2022-08-03T04:56:58.378Z,100997.03
2022-08-03T04:58:01.413Z,101005.75
2022-08-03T04:59:04.606Z,100994.34
2022-08-03T05:00:08.986Z,101002.28
2022-08-03T05:01:11.150Z,101005.56
2022-08-03T05:02:14.537Z,101009.66
2022-08-03T05:03:20.415Z,100999.38
2022-08-03T05:04:27.548Z,101008.91
2022-08-03T05:05:34.646Z,101004.84
2022-08-03T05:06:55.133Z,101005.41
2022-08-03T05:08:00.803Z,101012.81
2022-08-03T05:09:07.355Z,101014.19
2022-08-03T05:10:15.822Z,101012.03
2022-08-03T05:11:19.892Z,101016.69
2022-08-03T05:12:23.921Z,101009.94
2022-08-03T05:13:26.124Z,101012.97
2022-08-03T05:14:29.288Z,101012.50
2022-08-03T05:15:31.376Z,101005.72
2022-08-03T05:16:34.569Z,101008.75
2022-08-03T05:17:36.948Z,101009.06
2022-08-03T05:18:40.128Z,101003.94
2022-08-03T05:19:42.271Z,101004.50
2022-08-03T05:20:45.426Z,101004.81
2022-08-03T05:21:52.782Z,101007.59
2022-08-03T05:22:56.152Z,101015.22
2022-08-03T05:23:59.792Z,101008.16
2022-08-03T05:25:03.194Z,101002.78
2022-08-03T05:26:05.366Z,101003.34
2022-08-03T05:27:08.549Z,101012.63
2022-08-03T05:28:10.926Z,101014.31
2022-08-03T05:29:14.110Z,101013.78
2022-08-03T05:30:31.109Z,101010.56
2022-08-03T05:31:37.564Z,101007.06
2022-08-03T05:32:39.730Z,101009.25
2022-08-03T05:33:44.820Z,101010.41
2022-08-03T05:34:46.992Z,101001.72
2022-08-03T05:35:57.444Z,101015.59
2022-08-03T05:37:07.332Z,101010.22
2022-08-03T05:38:11.147Z,101011.31
2022-08-03T05:39:16.941Z,101013.31
2022-08-03T05:40:20.062Z,101010.88
2022-08-03T05:41:24.143Z,101007.38
2022-08-03T05:42:39.504Z,101003.88
2022-08-03T05:43:42.632Z,101009.59
2022-08-03T05:44:45.857Z,101007.19
2022-08-03T05:45:48.110Z,101011.81
2022-08-03T05:47:11.588Z,101008.34
2022-08-03T05:48:13.798Z,101004.56
2022-08-03T05:49:17.042Z,100999.69
2022-08-03T05:50:20.641Z,101007.28
2022-08-03T05:51:23.853Z,101014.66
2022-08-03T05:52:26.147Z,101007.63
2022-08-03T05:53:29.610Z,101000.84
2022-08-03T05:54:56.604Z,101006.56
2022-08-03T05:56:02.108Z,101007.41
2022-08-03T05:57:16.576Z,101004.69
2022-08-03T05:58:18.712Z,101006.88
2022-08-03T05:59:37.596Z,101001.75
2022-08-03T06:00:41.486Z,101011.84
2022-08-03T06:01:43.686Z,101006.94
2022-08-03T06:02:46.871Z,101003.47
2022-08-03T06:03:49.447Z,100995.59
2022-08-03T06:04:52.604Z,101001.06
2022-08-03T06:06:00.216Z,101002.13
2022-08-03T06:07:03.848Z,101002.16
2022-08-03T06:08:06.228Z,101007.59
2022-08-03T06:09:10.541Z,100995.13
2022-08-03T06:10:35.573Z,100997.28
2022-08-03T06:11:37.298Z,101005.47
2022-08-03T06:12:41.444Z,101003.03
2022-08-03T06:13:45.252Z,101002.22
2022-08-03T06:14:47.400Z,100998.94
2022-08-03T06:15:50.561Z,101003.88
2022-08-03T06:16:52.744Z,100997.88
2022-08-03T06:18:01.474Z,101002.78
2022-08-03T06:19:04.132Z,101003.06
2022-08-03T06:20:08.105Z,100998.69
2022-08-03T06:21:15.368Z,101000.06
2022-08-03T06:22:19.615Z,100993.00
2022-08-03T06:23:37.853Z,100992.19
2022-08-03T06:24:53.278Z,100994.66
2022-08-03T06:25:57.402Z,100988.41
2022-08-03T06:27:01.588Z,100994.94
2022-08-03T06:28:05.259Z,101001.47
2022-08-03T06:29:08.611Z,100996.28
2022-08-03T06:30:14.574Z,100996.28
2022-08-03T06:31:19.427Z,101002.56
2022-08-03T06:32:22.877Z,101011.00
2022-08-03T06:34:30.228Z,101000.38
2022-08-03T06:34:50.010Z,101004.16
2022-08-03T06:35:52.300Z,101006.88
2022-08-03T06:37:01.807Z,101004.44
2022-08-03T06:38:04.422Z,101012.09
2022-08-03T06:39:08.311Z,101007.69
2022-08-03T06:40:13.814Z,101006.63
2022-08-03T06:41:18.862Z,101006.06
2022-08-03T06:42:21.086Z,101004.41
2022-08-03T06:43:25.920Z,101019.13
2022-08-03T06:44:28.028Z,101003.84
2022-08-03T06:45:31.741Z,101011.22
2022-08-03T06:46:34.643Z,101003.31
2022-08-03T06:47:38.005Z,101002.75
2022-08-03T06:48:40.240Z,101006.00
2022-08-03T06:49:43.835Z,101003.53
2022-08-03T06:51:06.921Z,101006.25
2022-08-03T06:52:09.154Z,101006.22
2022-08-03T06:53:19.724Z,101016.28
2022-08-03T06:54:24.529Z,101007.25
2022-08-03T06:55:27.827Z,101015.44
2022-08-03T06:56:31.425Z,101019.25
2022-08-03T06:57:34.581Z,101014.84
2022-08-03T06:58:36.694Z,101020.56
2022-08-03T07:00:09.451Z,101013.16
2022-08-03T07:01:02.452Z,101015.03
2022-08-03T07:02:06.148Z,101011.50
2022-08-03T07:03:09.796Z,101015.03
2022-08-03T07:04:13.012Z,101024.00
2022-08-03T07:05:15.243Z,101019.09
2022-08-03T07:06:18.510Z,101028.06
2022-08-03T07:07:21.760Z,101018.19
2022-08-03T07:08:33.431Z,101023.63
2022-08-03T07:09:36.718Z,101026.91
2022-08-03T07:10:39.940Z,101034.50
2022-08-03T07:11:43.505Z,101030.94
2022-08-03T07:12:56.076Z,101034.72
2022-08-03T07:13:58.884Z,101031.66
2022-08-03T07:15:03.892Z,101031.06
2022-08-03T07:16:07.084Z,101033.25
2022-08-03T07:17:11.536Z,101023.09
2022-08-03T07:18:14.255Z,101031.25
2022-08-03T07:19:17.543Z,101031.50
2022-08-03T07:20:19.752Z,101029.56
2022-08-03T07:21:22.930Z,101031.44
2022-08-03T07:22:25.107Z,101030.84
2022-08-03T07:23:28.637Z,101033.84
2022-08-03T07:24:31.833Z,101032.47
2022-08-03T07:25:34.012Z,101036.25
2022-08-03T07:26:37.225Z,101035.69
2022-08-03T07:27:43.652Z,101035.63
2022-08-03T07:28:46.828Z,101039.41
2022-08-03T07:29:48.996Z,101029.25
2022-08-03T07:30:52.281Z,101034.97
2022-08-03T07:31:54.494Z,101027.78
2022-08-03T07:32:57.745Z,101036.75
2022-08-03T07:33:59.906Z,101032.38
2022-08-03T07:35:03.498Z,101034.22
2022-08-03T07:36:12.041Z,101033.63
2022-08-03T07:37:14.171Z,101030.31
2022-08-03T07:38:20.917Z,101036.31
2022-08-03T07:39:23.633Z,101033.84
2022-08-03T07:40:30.761Z,101037.94
2022-08-03T07:41:34.089Z,101035.69
2022-08-03T07:42:37.247Z,101038.97
2022-08-03T07:43:41.814Z,101034.84
2022-08-03T07:44:44.013Z,101025.53
2022-08-03T07:45:47.184Z,101030.69
2022-08-03T07:46:50.754Z,101027.66
2022-08-03T07:47:55.179Z,101024.94
2022-08-03T07:48:57.409Z,101030.94
2022-08-03T07:50:00.559Z,101024.44
2022-08-03T07:51:05.701Z,101030.94
2022-08-03T07:52:26.503Z,101024.38
2022-08-03T07:53:31.790Z,101027.31
2022-08-03T07:54:39.959Z,101024.81
2022-08-03T07:55:43.161Z,101025.03
2022-08-03T07:56:45.281Z,101027.19
2022-08-03T07:57:48.891Z,101029.84
2022-08-03T07:58:53.740Z,101030.38
2022-08-03T08:00:01.350Z,101032.03
2022-08-03T08:01:15.332Z,101029.59
2022-08-03T08:02:17.757Z,101029.78
2022-08-03T08:03:21.961Z,101032.53
2022-08-03T08:04:24.179Z,101027.28
2022-08-03T08:05:28.022Z,101028.63
2022-08-03T08:06:32.670Z,101030.78
2022-08-03T08:07:34.820Z,101032.63
2022-08-03T08:08:39.681Z,101031.75
2022-08-03T08:09:41.931Z,101029.25
2022-08-03T08:10:56.628Z,101030.56
2022-08-03T08:12:01.811Z,101030.00
2022-08-03T08:13:05.776Z,101032.44
2022-08-03T08:14:09.837Z,101029.41
2022-08-03T08:15:13.097Z,101026.41
2022-08-03T08:16:15.314Z,101032.69
2022-08-03T08:17:19.850Z,101026.09
2022-08-03T08:18:24.042Z,101027.72
2022-08-03T08:19:26.197Z,101025.22
2022-08-03T08:20:37.228Z,101026.53
2022-08-03T08:22:01.785Z,101030.31
2022-08-03T08:23:06.956Z,101013.06
2022-08-03T08:24:27.034Z,101027.72
2022-08-03T08:25:31.419Z,101024.09
2022-08-03T08:26:33.837Z,101025.13
2022-08-03T08:28:22.235Z,101031.34
2022-08-03T08:29:06.730Z,101029.31
2022-08-03T08:30:15.997Z,101035.25
2022-08-03T08:31:21.943Z,101032.41
2022-08-03T08:32:24.167Z,101032.34
2022-08-03T08:33:37.409Z,101027.09
2022-08-03T08:34:51.051Z,101027.00
2022-08-03T08:35:53.559Z,101032.72
2022-08-03T08:36:56.803Z,101017.56
2022-08-03T08:38:00.255Z,101026.53
2022-08-03T08:39:09.192Z,101032.25
2022-08-03T08:40:13.489Z,101026.97
2022-08-03T08:41:17.305Z,101027.69
2022-08-03T08:42:19.602Z,101026.78
2022-08-03T08:43:22.864Z,101034.41
2022-08-03T08:44:25.043Z,101029.44
2022-08-03T08:45:29.929Z,101027.81
2022-08-03T08:46:33.169Z,101037.06
2022-08-03T08:47:50.933Z,101026.09
2022-08-03T08:48:55.809Z,101031.56
2022-08-03T08:50:09.763Z,101035.97
2022-08-03T08:51:14.007Z,101034.31
2022-08-03T08:52:25.210Z,101033.22
2022-08-03T08:53:37.012Z,101034.84
2022-08-03T08:54:41.815Z,101032.59
2022-08-03T08:55:58.077Z,101036.66
2022-08-03T08:57:16.433Z,101032.81
2022-08-03T08:58:30.970Z,101043.19
2022-08-03T08:59:47.910Z,101044.19
2022-08-03T09:00:53.158Z,101034.53
2022-08-03T09:01:58.049Z,101026.81
2022-08-03T09:03:02.496Z,101033.34
2022-08-03T09:04:09.484Z,101033.88
2022-08-03T09:05:13.155Z,101039.56
2022-08-03T09:06:16.972Z,101035.41
2022-08-03T09:07:20.637Z,101034.78
2022-08-03T09:08:24.405Z,101033.88
2022-08-03T09:10:00.367Z,101031.63
2022-08-03T09:10:50.010Z,101041.47
2022-08-03T09:11:57.760Z,101038.13
2022-08-03T09:13:12.131Z,101037.03
2022-08-03T09:14:34.180Z,101044.13
2022-08-03T09:15:38.257Z,101039.16
2022-08-03T09:16:56.318Z,101035.78
2022-08-03T09:18:00.737Z,101026.44
2022-08-03T09:19:13.914Z,101029.69
2022-08-03T09:20:16.495Z,101037.03
2022-08-03T09:21:33.544Z,101036.72
2022-08-03T09:22:36.513Z,101045.16
2022-08-03T09:24:01.635Z,101038.53
2022-08-03T09:25:23.974Z,101035.16
2022-08-03T09:26:30.019Z,101033.94
2022-08-03T09:27:42.688Z,101033.84
2022-08-03T09:28:57.939Z,101029.66
2022-08-03T09:30:33.335Z,101033.13
2022-08-03T09:31:39.606Z,101031.09
2022-08-03T09:32:47.602Z,101030.97
2022-08-03T09:33:50.845Z,101035.53
2022-08-03T09:34:57.896Z,101038.19
2022-08-03T09:36:01.513Z,101022.38
2022-08-03T09:37:14.946Z,101024.72
2022-08-03T09:38:19.902Z,101032.00
2022-08-03T09:39:41.446Z,101027.53
2022-08-03T09:40:46.701Z,101031.75
2022-08-03T09:42:05.321Z,101031.13
2022-08-03T09:43:08.315Z,101033.44
2022-08-03T09:44:24.119Z,101038.06
2022-08-03T09:45:30.082Z,101038.25
2022-08-03T09:46:33.318Z,101037.63
2022-08-03T09:47:37.361Z,101029.25
2022-08-03T09:48:48.715Z,101032.50
2022-08-03T09:49:58.929Z,101052.72
2022-08-03T09:51:13.828Z,101041.41
2022-08-03T09:52:38.859Z,101040.00
2022-08-03T09:53:58.854Z,101033.84
2022-08-03T09:55:04.431Z,101038.09
2022-08-03T09:56:39.720Z,101046.84
2022-08-03T09:57:46.299Z,101032.44
2022-08-03T09:58:48.762Z,101037.47
2022-08-03T10:00:03.114Z,101028.78
2022-08-03T10:01:14.624Z,101031.38
2022-08-03T10:02:28.940Z,101035.94
2022-08-03T10:03:32.768Z,101024.28
2022-08-03T10:04:48.505Z,101032.44
2022-08-03T10:05:52.268Z,101018.69
2022-08-03T10:07:05.392Z,101028.59
2022-08-03T10:08:15.392Z,101020.91
2022-08-03T10:09:18.601Z,101023.19
2022-08-03T10:10:28.871Z,101017.50
2022-08-03T10:11:40.886Z,101025.94
2022-08-03T10:12:48.132Z,101024.78
2022-08-03T10:13:50.408Z,101025.81
2022-08-03T10:15:01.277Z,101015.28
2022-08-03T10:16:22.328Z,101011.44
2022-08-03T10:17:27.722Z,101018.91
2022-08-03T10:18:30.054Z,101029.78
2022-08-03T10:19:34.006Z,101021.69
2022-08-03T10:20:45.137Z,101029.50
2022-08-03T10:21:54.691Z,101012.28
2022-08-03T10:22:59.486Z,101021.72
2022-08-03T10:24:04.325Z,101019.78
2022-08-03T10:25:10.048Z,101016.22
2022-08-03T10:26:16.411Z,101018.97
2022-08-03T10:27:21.367Z,101017.81
2022-08-03T10:28:24.710Z,101007.31
2022-08-03T10:29:30.734Z,101010.56
2022-08-03T10:30:33.309Z,101020.94
2022-08-03T10:31:57.604Z,101010.41
2022-08-03T10:33:10.878Z,101015.47
2022-08-03T10:34:35.600Z,101017.56
2022-08-03T10:35:41.524Z,101017.25
2022-08-03T10:36:46.657Z,101002.50
2022-08-03T10:37:56.750Z,101015.94
2022-08-03T10:39:01.983Z,101014.63
2022-08-03T10:40:08.326Z,101027.44
2022-08-03T10:41:11.627Z,101020.44
2022-08-03T10:42:15.273Z,101008.78
2022-08-03T10:43:21.845Z,101016.38
2022-08-03T10:44:27.535Z,101012.94
2022-08-03T10:45:34.354Z,101015.19
2022-08-03T10:46:44.541Z,101023.44
2022-08-03T10:47:49.481Z,101009.69
2022-08-03T10:48:52.858Z,101005.81
2022-08-03T10:49:56.294Z,101009.34
2022-08-03T10:51:01.166Z,101005.50
2022-08-03T10:52:13.895Z,101013.09
2022-08-03T10:53:36.851Z,101003.09
2022-08-03T10:54:58.671Z,101007.13
2022-08-03T10:56:21.633Z,101011.22
2022-08-03T10:57:48.756Z,101004.88
2022-08-03T10:58:57.594Z,101010.75
2022-08-03T11:00:00.658Z,101013.66
2022-08-03T11:01:04.865Z,101007.50
2022-08-03T11:02:09.955Z,101009.31
2022-08-03T11:03:15.143Z,101008.03
2022-08-03T11:04:19.864Z,101007.59
2022-08-03T11:05:30.628Z,101007.91
2022-08-03T11:06:37.632Z,101001.94
2022-08-03T11:07:39.980Z,101005.81
2022-08-03T11:08:43.240Z,101002.25
2022-08-03T11:09:48.535Z,101008.94
2022-08-03T11:10:53.216Z,101005.34
2022-08-03T11:11:56.739Z,101008.44
2022-08-03T11:13:07.381Z,101007.66
2022-08-03T11:14:13.464Z,101018.69
2022-08-03T11:15:32.921Z,101003.91
2022-08-03T11:16:38.478Z,101004.88
2022-08-03T11:18:11.515Z,101004.22
2022-08-03T11:19:16.711Z,100998.88
2022-08-03T11:20:48.083Z,101003.53
2022-08-03T11:21:59.899Z,101003.38
2022-08-03T11:23:02.998Z,100998.00
2022-08-03T11:24:06.953Z,101006.94
2022-08-03T11:25:53.060Z,101005.94
2022-08-03T11:26:33.782Z,101005.47
2022-08-03T11:27:37.704Z,101009.97
2022-08-03T11:28:43.023Z,101002.34
2022-08-03T11:29:56.762Z,101000.56
2022-08-03T11:31:57.542Z,101003.78
2022-08-03T11:33:00.523Z,101000.56
2022-08-03T11:34:07.431Z,101014.69
2022-08-03T11:35:11.510Z,101005.91
2022-08-03T11:36:16.580Z,101007.03
2022-08-03T11:37:37.652Z,101000.25
2022-08-03T11:39:16.750Z,101010.31
2022-08-03T11:40:34.725Z,101007.06
2022-08-03T11:41:44.894Z,101000.75
2022-08-03T11:42:48.979Z,101006.78
2022-08-03T11:43:52.141Z,101007.22
2022-08-03T11:44:56.072Z,100999.59
2022-08-03T11:46:00.525Z,101001.34
2022-08-03T11:47:02.889Z,101001.16
2022-08-03T11:48:16.582Z,101006.97
2022-08-03T11:49:23.675Z,101003.69
2022-08-03T11:50:27.017Z,100996.88
2022-08-03T11:51:32.209Z,101003.47
2022-08-03T11:52:38.348Z,100999.75
2022-08-03T11:53:42.085Z,100997.59
2022-08-03T11:54:45.416Z,101001.66
2022-08-03T11:55:49.939Z,101003.44
2022-08-03T11:56:52.277Z,101004.72
2022-08-03T11:59:11.061Z,100994.78
2022-08-03T11:59:33.803Z,101005.50
2022-08-03T12:00:35.946Z,101009.91
2022-08-03T12:01:40.027Z,100998.03
2022-08-03T12:02:54.902Z,100992.50
2022-08-03T12:04:05.301Z,100994.78
2022-08-03T12:05:07.970Z,100995.97
2022-08-03T12:06:12.669Z,100995.47
2022-08-03T12:07:24.995Z,100997.41
2022-08-03T12:08:39.954Z,100990.13
2022-08-03T12:09:43.791Z,100999.59
2022-08-03T12:10:51.460Z,100996.00
2022-08-03T12:12:00.582Z,100990.81
2022-08-03T12:14:44.423Z,100991.28
2022-08-03T12:14:48.292Z,100980.34
2022-08-03T12:15:56.064Z,100977.41
2022-08-03T12:16:58.264Z,100986.31
2022-08-03T12:18:01.924Z,100982.53
2022-08-03T12:19:08.215Z,100987.56
2022-08-03T12:20:21.026Z,100986.69
2022-08-03T12:21:57.350Z,100981.53
2022-08-03T12:23:04.587Z,100977.97
2022-08-03T12:24:09.747Z,100994.34
2022-08-03T12:25:26.989Z,100989.41
2022-08-03T12:26:58.323Z,100981.91
2022-08-03T12:28:36.562Z,100985.84
2022-08-03T12:29:35.310Z,100988.94
2022-08-03T12:30:38.111Z,100970.38
2022-08-03T12:31:41.263Z,100973.97
2022-08-03T12:32:44.100Z,100989.88
2022-08-03T12:33:59.352Z,100997.97
2022-08-03T12:35:04.597Z,100993.25
2022-08-03T12:36:09.464Z,100988.53
2022-08-03T12:37:20.303Z,100980.56
2022-08-03T12:38:26.439Z,100986.44
2022-08-03T12:39:31.388Z,100980.13
2022-08-03T12:40:33.866Z,100976.53
2022-08-03T12:41:39.069Z,100985.66
2022-08-03T12:42:41.274Z,100989.19
2022-08-03T12:43:49.359Z,100985.78
2022-08-03T12:44:51.511Z,100990.63
2022-08-03T12:46:13.719Z,100989.13
2022-08-03T12:47:17.166Z,100976.13
2022-08-03T12:48:19.497Z,100988.13
2022-08-03T12:49:27.148Z,100985.16